createdAt,value
2022-09-11T00:01:33.258Z,99.90
2022-09-11T00:04:01.648Z,99.90
2022-09-11T00:06:31.068Z,99.90
2022-09-11T00:09:02.136Z,99.90
2022-09-11T00:11:33.141Z,99.90
2022-09-11T00:14:01.822Z,99.90
2022-09-11T00:16:34.069Z,99.90
2022-09-11T00:19:05.240Z,99.90
2022-09-11T00:21:33.542Z,99.90
2022-09-11T00:24:03.536Z,99.90
2022-09-11T00:26:31.657Z,99.90
2022-09-11T00:29:00.730Z,99.90
2022-09-11T00:31:30.485Z,99.90
2022-09-11T00:33:59.060Z,99.90
2022-09-11T00:36:29.049Z,99.90
2022-09-11T00:38:58.106Z,99.90
2022-09-11T00:41:30.300Z,99.90
2022-09-11T00:44:02.316Z,99.90
2022-09-11T00:46:40.819Z,99.90
2022-09-11T00:49:18.959Z,99.90
2022-09-11T00:51:50.463Z,99.90
2022-09-11T00:54:21.395Z,99.90
2022-09-11T00:56:51.057Z,99.90
2022-09-11T00:59:21.489Z,99.90
2022-09-11T01:01:49.614Z,99.90
2022-09-11T01:04:18.040Z,99.90
2022-09-11T01:06:46.997Z,99.90
2022-09-11T01:09:15.399Z,99.90
2022-09-11T01:11:50.875Z,99.90
2022-09-11T01:14:34.318Z,99.90
2022-09-11T01:17:12.758Z,99.90
2022-09-11T01:20:00.173Z,99.90
2022-09-11T01:22:43.999Z,99.90
2022-09-11T01:25:27.407Z,99.90
2022-09-11T01:27:58.352Z,99.90
2022-09-11T01:30:34.168Z,99.90
2022-09-11T01:33:17.327Z,99.90
2022-09-11T01:35:58.393Z,99.90
2022-09-11T01:38:33.460Z,99.90
2022-09-11T01:41:08.532Z,99.90
2022-09-11T01:43:42.318Z,99.90
2022-09-11T01:46:10.450Z,99.90
2022-09-11T01:48:41.478Z,99.90
2022-09-11T01:51:16.504Z,99.90
2022-09-11T01:53:50.279Z,99.90
2022-09-11T01:56:23.491Z,99.90
2022-09-11T01:58:57.878Z,99.90
2022-09-11T02:01:30.543Z,99.90
2022-09-11T02:04:05.226Z,99.90
2022-09-11T02:06:38.939Z,99.90
2022-09-11T02:09:10.895Z,99.90
2022-09-11T02:11:43.274Z,99.90
2022-09-11T02:14:18.032Z,99.90
2022-09-11T02:16:49.981Z,99.90
2022-09-11T02:19:20.257Z,99.90
2022-09-11T02:21:48.959Z,99.90
2022-09-11T02:24:17.633Z,99.90
2022-09-11T02:26:49.178Z,99.90
2022-09-11T02:29:18.602Z,99.90
2022-09-11T02:31:47.710Z,99.90
2022-09-11T02:34:16.157Z,99.90
2022-09-11T02:37:03.284Z,99.90
2022-09-11T02:39:49.325Z,99.90
2022-09-11T02:42:32.176Z,99.90
2022-09-11T02:45:08.732Z,99.90
2022-09-11T02:47:46.519Z,99.90
2022-09-11T02:50:23.100Z,99.90
2022-09-11T02:52:59.195Z,99.90
2022-09-11T02:55:36.959Z,99.90
2022-09-11T02:58:11.031Z,99.90
2022-09-11T03:00:41.050Z,99.90
2022-09-11T03:03:09.018Z,99.90
2022-09-11T03:05:37.198Z,99.90
2022-09-11T03:08:05.437Z,99.90
2022-09-11T03:10:33.487Z,99.90
2022-09-11T03:13:01.711Z,99.90
2022-09-11T03:15:29.769Z,99.90
2022-09-11T03:17:59.073Z,99.90
2022-09-11T03:20:27.136Z,99.90
2022-09-11T03:22:55.107Z,99.90
2022-09-11T03:25:24.590Z,99.90
2022-09-11T03:27:52.588Z,99.90
2022-09-11T03:30:20.718Z,99.90
2022-09-11T03:32:49.187Z,99.90
2022-09-11T03:35:18.622Z,99.90
2022-09-11T03:37:47.092Z,99.90
2022-09-11T03:40:15.273Z,99.90
2022-09-11T03:42:43.347Z,99.90
2022-09-11T03:45:12.035Z,99.90
2022-09-11T03:47:40.567Z,99.90
2022-09-11T03:50:09.750Z,99.90
2022-09-11T03:52:39.809Z,99.90
2022-09-11T03:55:08.669Z,99.90
2022-09-11T03:57:37.873Z,99.90
2022-09-11T04:00:07.431Z,99.90
2022-09-11T04:02:35.540Z,99.90
2022-09-11T04:05:04.462Z,99.90
2022-09-11T04:07:32.515Z,99.90
2022-09-11T04:10:01.921Z,99.90
2022-09-11T04:12:29.917Z,99.90
2022-09-11T04:14:58.161Z,99.90
2022-09-11T04:17:26.225Z,99.90
2022-09-11T04:19:54.195Z,99.90
2022-09-11T04:22:23.921Z,99.90
2022-09-11T04:24:51.953Z,99.90
2022-09-11T04:27:23.411Z,99.90
2022-09-11T04:29:51.828Z,99.90
2022-09-11T04:32:20.012Z,99.90
2022-09-11T04:34:47.991Z,99.90
2022-09-11T04:37:16.731Z,99.90
2022-09-11T04:39:44.769Z,99.90
2022-09-11T04:42:12.819Z,99.90
2022-09-11T04:44:42.729Z,99.90
2022-09-11T04:47:10.973Z,99.90
2022-09-11T04:49:40.447Z,99.90
2022-09-11T04:52:08.480Z,99.90
2022-09-11T04:54:37.008Z,99.90
2022-09-11T04:57:05.411Z,99.90
2022-09-11T04:59:33.487Z,99.90
2022-09-11T05:02:03.183Z,99.90
2022-09-11T05:04:31.490Z,99.90
2022-09-11T05:06:59.553Z,99.90
2022-09-11T05:09:28.265Z,99.90
2022-09-11T05:11:57.230Z,99.90
2022-09-11T05:14:25.437Z,99.90
2022-09-11T05:16:55.119Z,99.90
2022-09-11T05:19:25.660Z,99.90
2022-09-11T05:21:53.820Z,99.90
2022-09-11T05:24:24.931Z,99.90
2022-09-11T05:26:53.021Z,99.90
2022-09-11T05:29:21.487Z,99.90
2022-09-11T05:31:49.958Z,99.90
2022-09-11T05:34:18.031Z,99.90
2022-09-11T05:36:47.484Z,99.90
2022-09-11T05:39:15.475Z,99.90
2022-09-11T05:41:43.501Z,99.90
2022-09-11T05:44:11.786Z,99.90
2022-09-11T05:46:39.883Z,99.90
2022-09-11T05:49:08.022Z,99.90
2022-09-11T05:51:37.739Z,99.90
2022-09-11T05:54:07.314Z,99.90
2022-09-11T05:56:35.525Z,99.90
2022-09-11T05:59:03.532Z,99.90
2022-09-11T06:01:32.094Z,99.90
2022-09-11T06:04:01.155Z,99.90
2022-09-11T06:06:29.589Z,99.90
2022-09-11T06:08:57.963Z,99.90
2022-09-11T06:11:27.366Z,99.90
2022-09-11T06:13:58.035Z,99.90
2022-09-11T06:16:26.599Z,99.90
2022-09-11T06:18:55.101Z,99.90
2022-09-11T06:21:24.947Z,99.90
2022-09-11T06:23:54.312Z,99.90
2022-09-11T06:26:24.539Z,99.90
2022-09-11T06:28:54.504Z,99.90
2022-09-11T06:31:24.465Z,99.90
2022-09-11T06:33:53.121Z,99.90
2022-09-11T06:36:23.111Z,99.90
2022-09-11T06:38:55.220Z,99.90
2022-09-11T06:41:24.515Z,99.90
2022-09-11T06:43:54.626Z,99.90
2022-09-11T06:46:24.806Z,99.90
2022-09-11T06:48:53.535Z,99.90
2022-09-11T06:51:23.307Z,99.90
2022-09-11T06:53:57.693Z,99.90
2022-09-11T06:56:26.231Z,99.90
2022-09-11T06:58:55.655Z,99.90
2022-09-11T07:01:24.358Z,99.90
2022-09-11T07:03:54.033Z,99.90
2022-09-11T07:06:23.678Z,99.90
2022-09-11T07:08:53.330Z,99.90
2022-09-11T07:11:22.002Z,99.90
2022-09-11T07:13:50.151Z,99.90
2022-09-11T07:16:19.575Z,99.90
2022-09-11T07:18:48.772Z,99.90
2022-09-11T07:21:18.470Z,99.90
2022-09-11T07:23:48.993Z,99.90
2022-09-11T07:26:17.323Z,99.90
2022-09-11T07:28:47.086Z,99.90
2022-09-11T07:31:20.903Z,99.90
2022-09-11T07:33:52.268Z,99.90
2022-09-11T07:36:21.978Z,99.90
2022-09-11T07:38:51.218Z,99.90
2022-09-11T07:41:21.328Z,99.90
2022-09-11T07:43:53.151Z,99.90
2022-09-11T07:46:21.701Z,99.90
2022-09-11T07:48:52.362Z,99.90
2022-09-11T07:51:21.285Z,99.90
2022-09-11T07:53:51.059Z,99.90
2022-09-11T07:56:21.369Z,99.90
2022-09-11T07:58:49.911Z,99.90
2022-09-11T08:01:20.499Z,99.90
2022-09-11T08:03:49.346Z,99.90
2022-09-11T08:06:22.391Z,99.90
2022-09-11T08:08:54.073Z,99.90
2022-09-11T08:11:23.067Z,99.90
2022-09-11T08:13:52.105Z,99.90
2022-09-11T08:16:21.102Z,99.90
2022-09-11T08:18:49.385Z,99.90
2022-09-11T08:21:19.137Z,99.90
2022-09-11T08:23:49.034Z,99.90
2022-09-11T08:26:21.674Z,99.90
2022-09-11T08:28:52.030Z,99.90
2022-09-11T08:31:22.702Z,99.90
2022-09-11T08:33:50.812Z,99.90
2022-09-11T08:36:20.774Z,99.90
2022-09-11T08:38:49.286Z,99.90
2022-09-11T08:41:29.906Z,99.90
2022-09-11T08:44:01.546Z,99.90
2022-09-11T08:46:35.112Z,99.90
2022-09-11T08:49:09.967Z,99.90
2022-09-11T08:51:40.613Z,99.90
2022-09-11T08:54:12.043Z,99.90
2022-09-11T08:56:40.383Z,99.90
2022-09-11T08:59:22.789Z,99.90
2022-09-11T09:02:00.366Z,99.90
2022-09-11T09:04:43.523Z,99.90
2022-09-11T09:07:22.923Z,99.90
2022-09-11T09:10:03.226Z,99.90
2022-09-11T09:12:39.414Z,99.90
2022-09-11T09:15:19.426Z,99.90
2022-09-11T09:17:53.806Z,99.90
2022-09-11T09:20:27.235Z,99.90
2022-09-11T09:23:01.358Z,99.90
2022-09-11T09:25:31.711Z,99.90
2022-09-11T09:28:04.960Z,99.90
2022-09-11T09:30:43.726Z,99.90
2022-09-11T09:33:30.940Z,99.90
2022-09-11T09:36:13.060Z,99.90
2022-09-11T09:38:42.989Z,99.90
2022-09-11T09:41:41.040Z,99.90
2022-09-11T09:44:19.965Z,99.90
2022-09-11T09:46:51.315Z,99.90
2022-09-11T09:49:23.274Z,99.90
2022-09-11T09:51:52.420Z,99.90
2022-09-11T09:54:26.227Z,99.90
2022-09-11T09:56:59.955Z,99.90
2022-09-11T09:59:34.181Z,99.90
2022-09-11T10:02:02.347Z,99.90
2022-09-11T10:04:30.504Z,99.90
2022-09-11T10:07:10.701Z,99.90
2022-09-11T10:09:48.311Z,99.90
2022-09-11T10:12:19.399Z,99.90
2022-09-11T10:14:53.229Z,99.90
2022-09-11T10:17:23.343Z,99.90
2022-09-11T10:19:52.929Z,99.90
2022-09-11T10:22:32.396Z,99.90
2022-09-11T10:25:15.185Z,99.90
2022-09-11T10:27:54.311Z,99.90
2022-09-11T10:30:35.010Z,99.90
2022-09-11T10:33:07.212Z,99.90
2022-09-11T10:35:37.397Z,99.90
2022-09-11T10:38:17.891Z,99.90
2022-09-11T10:41:09.744Z,99.90
2022-09-11T10:43:46.695Z,99.90
2022-09-11T10:46:28.935Z,99.90
2022-09-11T10:48:59.332Z,99.90
2022-09-11T10:51:30.134Z,99.90
2022-09-11T10:54:09.602Z,99.90
2022-09-11T10:56:45.627Z,99.90
2022-09-11T10:59:19.626Z,99.90
2022-09-11T11:01:48.164Z,99.90
2022-09-11T11:04:17.105Z,99.90
2022-09-11T11:07:00.836Z,99.90
2022-09-11T11:09:40.701Z,99.90
2022-09-11T11:12:40.188Z,99.90
2022-09-11T11:15:28.155Z,99.90
2022-09-11T11:18:26.724Z,99.90
2022-09-11T11:21:03.972Z,99.90
2022-09-11T11:23:52.369Z,99.90
2022-09-11T11:26:36.654Z,99.90
2022-09-11T11:29:28.567Z,99.90
2022-09-11T11:32:27.910Z,99.90
2022-09-11T11:35:13.880Z,99.90
2022-09-11T11:37:43.815Z,99.90
2022-09-11T11:40:18.711Z,99.90
2022-09-11T11:42:55.418Z,99.90
2022-09-11T11:45:31.856Z,99.90
2022-09-11T11:48:05.244Z,99.90
2022-09-11T11:50:38.863Z,99.90
2022-09-11T11:53:12.386Z,99.90
2022-09-11T11:55:51.857Z,99.90
2022-09-11T11:58:31.274Z,99.90
2022-09-11T12:01:05.515Z,99.90
2022-09-11T12:03:37.812Z,99.90
2022-09-11T12:06:07.519Z,99.90
2022-09-11T12:08:43.390Z,99.90
2022-09-11T12:11:13.860Z,99.90
2022-09-11T12:13:45.490Z,99.90
2022-09-11T12:16:19.608Z,99.90
2022-09-11T12:19:07.814Z,99.90
2022-09-11T12:21:39.007Z,99.90
2022-09-11T12:24:18.962Z,99.90
2022-09-11T12:26:47.683Z,99.90
2022-09-11T12:29:52.724Z,99.90
2022-09-11T12:32:29.072Z,99.20
2022-09-11T12:35:02.886Z,98.10
2022-09-11T12:37:38.690Z,98.40
2022-09-11T12:40:17.042Z,99.80
2022-09-11T12:42:49.565Z,99.10
2022-09-11T12:45:36.434Z,98.30
2022-09-11T12:48:09.522Z,99.20
2022-09-11T12:50:38.521Z,98.50
2022-09-11T12:53:16.590Z,99.00
2022-09-11T12:55:54.452Z,99.00
2022-09-11T12:58:31.119Z,98.10
2022-09-11T13:01:06.918Z,98.80
2022-09-11T13:03:37.740Z,97.80
2022-09-11T13:06:09.340Z,98.00
2022-09-11T13:08:41.430Z,97.40
2022-09-11T13:11:35.499Z,97.20
2022-09-11T13:14:04.378Z,98.20
2022-09-11T13:16:34.868Z,98.90
2022-09-11T13:19:13.502Z,97.50
2022-09-11T13:21:43.092Z,99.10
2022-09-11T13:24:28.489Z,98.90
2022-09-11T13:26:59.795Z,98.80
2022-09-11T13:29:30.547Z,98.60
2022-09-11T13:32:00.693Z,99.70
2022-09-11T13:34:31.291Z,99.70
2022-09-11T13:36:59.797Z,99.10
2022-09-11T13:39:29.077Z,96.80
2022-09-11T13:42:02.901Z,98.10
2022-09-11T13:44:39.915Z,98.90
2022-09-11T13:47:17.646Z,99.30
2022-09-11T13:49:49.028Z,97.80
2022-09-11T13:52:18.107Z,98.20
2022-09-11T13:54:50.546Z,99.00
2022-09-11T13:57:20.872Z,98.70
2022-09-11T13:59:51.910Z,98.90
2022-09-11T14:02:26.369Z,98.50
2022-09-11T14:05:04.720Z,99.00
2022-09-11T14:07:35.139Z,99.60
2022-09-11T14:10:08.649Z,99.90
2022-09-11T14:12:47.947Z,99.90
2022-09-11T14:15:22.403Z,99.90
2022-09-11T14:17:51.100Z,99.90
2022-09-11T14:20:23.067Z,99.70
2022-09-11T14:22:55.635Z,99.90
2022-09-11T14:25:25.401Z,99.90
2022-09-11T14:27:53.711Z,99.90
2022-09-11T14:30:28.215Z,99.90
2022-09-11T14:33:17.590Z,99.40
2022-09-11T14:35:50.258Z,99.90
2022-09-11T14:38:21.606Z,99.30
2022-09-11T14:40:56.351Z,99.30
2022-09-11T14:43:30.199Z,99.80
2022-09-11T14:45:58.791Z,99.80
2022-09-11T14:48:27.919Z,99.90
2022-09-11T14:50:57.874Z,99.30
2022-09-11T14:53:30.218Z,98.80
2022-09-11T14:56:00.433Z,99.00
2022-09-11T14:58:29.771Z,98.60
2022-09-11T15:00:58.453Z,98.20
2022-09-11T15:03:26.733Z,98.80
2022-09-11T15:05:58.763Z,97.80
2022-09-11T15:08:27.323Z,99.00
2022-09-11T15:10:55.707Z,98.70
2022-09-11T15:13:23.991Z,98.50
2022-09-11T15:15:52.206Z,98.80
2022-09-11T15:18:20.421Z,99.30
2022-09-11T15:20:48.388Z,99.50
2022-09-11T15:23:17.836Z,98.40
2022-09-11T15:25:45.814Z,98.90
2022-09-11T15:28:14.188Z,99.50
2022-09-11T15:30:42.846Z,98.70
2022-09-11T15:33:11.568Z,99.80
2022-09-11T15:35:39.606Z,99.00
2022-09-11T15:38:08.006Z,99.10
2022-09-11T15:40:39.204Z,99.70
2022-09-11T15:43:07.213Z,99.70
2022-09-11T15:45:35.212Z,99.90
2022-09-11T15:48:03.496Z,99.90
2022-09-11T15:50:31.429Z,99.90
2022-09-11T15:52:59.381Z,99.90
2022-09-11T15:55:30.138Z,99.90
2022-09-11T15:58:01.026Z,99.90
2022-09-11T16:00:29.397Z,99.90
2022-09-11T16:02:57.572Z,99.40
2022-09-11T16:05:25.673Z,99.90
2022-09-11T16:07:53.790Z,99.60
2022-09-11T16:10:22.040Z,99.90
2022-09-11T16:12:50.072Z,99.90
2022-09-11T16:15:19.404Z,99.90
2022-09-11T16:17:48.368Z,99.90
2022-09-11T16:20:16.666Z,99.90
2022-09-11T16:22:45.531Z,99.80
2022-09-11T16:25:13.518Z,99.20
2022-09-11T16:27:43.720Z,99.90
2022-09-11T16:30:43.608Z,99.90
2022-09-11T16:33:02.326Z,99.50
2022-09-11T16:35:32.041Z,99.40
2022-09-11T16:38:00.876Z,99.40
2022-09-11T16:40:29.171Z,99.50
2022-09-11T16:42:57.167Z,99.00
2022-09-11T16:45:25.629Z,99.60
2022-09-11T16:47:53.761Z,99.60
2022-09-11T16:50:24.272Z,99.90
2022-09-11T16:52:52.598Z,99.90
2022-09-11T16:55:22.060Z,99.90
2022-09-11T16:57:50.248Z,99.90
2022-09-11T17:00:18.519Z,99.90
2022-09-11T17:02:46.523Z,99.90
2022-09-11T17:05:17.494Z,99.90
2022-09-11T17:07:47.397Z,99.90
2022-09-11T17:10:15.467Z,99.90
2022-09-11T17:12:43.460Z,99.90
2022-09-11T17:15:11.991Z,99.90
2022-09-11T17:17:41.133Z,99.90
2022-09-11T17:20:11.725Z,99.90
2022-09-11T17:22:40.165Z,99.90
2022-09-11T17:25:11.434Z,99.90
2022-09-11T17:27:39.420Z,99.90
2022-09-11T17:30:08.443Z,99.90
2022-09-11T17:32:37.089Z,99.90
2022-09-11T17:35:05.726Z,99.90
2022-09-11T17:37:33.754Z,99.90
2022-09-11T17:40:02.199Z,99.90
2022-09-11T17:42:32.399Z,99.90
2022-09-11T17:45:01.468Z,99.90
2022-09-11T17:47:31.563Z,99.90
2022-09-11T17:50:01.446Z,99.90
2022-09-11T17:52:30.032Z,99.90
2022-09-11T17:54:58.067Z,99.90
2022-09-11T17:57:26.461Z,99.90
2022-09-11T17:59:56.681Z,99.90
2022-09-11T18:02:24.857Z,99.90
2022-09-11T18:04:52.991Z,99.90
2022-09-11T18:07:21.279Z,99.90
2022-09-11T18:09:51.905Z,99.90
2022-09-11T18:12:25.831Z,99.90
2022-09-11T18:14:57.018Z,99.90
2022-09-11T18:17:25.020Z,99.90
2022-09-11T18:19:53.317Z,99.90
2022-09-11T18:22:22.405Z,99.90
2022-09-11T18:24:50.877Z,99.90
2022-09-11T18:27:19.955Z,99.90
2022-09-11T18:29:50.157Z,99.90
2022-09-11T18:32:20.086Z,99.90
2022-09-11T18:34:49.681Z,99.90
2022-09-11T18:37:17.807Z,99.90
2022-09-11T18:39:46.841Z,99.90
2022-09-11T18:42:15.007Z,99.90
2022-09-11T18:44:43.000Z,99.90
2022-09-11T18:47:11.011Z,99.90
2022-09-11T18:49:40.469Z,99.90
2022-09-11T18:52:08.851Z,99.90
2022-09-11T18:54:37.267Z,99.90
2022-09-11T18:57:05.828Z,99.90
2022-09-11T18:59:33.841Z,99.90
2022-09-11T19:02:02.228Z,99.90
2022-09-11T19:04:30.338Z,99.90
2022-09-11T19:07:00.399Z,99.90
2022-09-11T19:09:29.277Z,99.90
2022-09-11T19:11:58.009Z,99.90
2022-09-11T19:14:27.452Z,99.90
2022-09-11T19:16:56.100Z,99.90
2022-09-11T19:19:24.363Z,99.90
2022-09-11T19:21:52.509Z,99.90
2022-09-11T19:24:35.918Z,99.90
2022-09-11T19:27:05.149Z,99.90
2022-09-11T19:29:36.201Z,99.90
2022-09-11T19:32:05.596Z,99.90
2022-09-11T19:34:38.858Z,99.90
2022-09-11T19:37:11.503Z,99.90
2022-09-11T19:39:41.229Z,99.90
2022-09-11T19:42:10.028Z,99.90
2022-09-11T19:44:38.608Z,99.90
2022-09-11T19:47:06.825Z,99.90
2022-09-11T19:49:35.691Z,99.90
2022-09-11T19:52:04.271Z,99.90
2022-09-11T19:54:34.659Z,99.90
2022-09-11T19:57:04.950Z,99.90
2022-09-11T19:59:34.391Z,99.90
2022-09-11T20:02:02.585Z,99.90
2022-09-11T20:04:30.714Z,99.90
2022-09-11T20:06:59.775Z,99.90
2022-09-11T20:09:31.773Z,99.90
2022-09-11T20:12:11.769Z,99.90
2022-09-11T20:14:42.598Z,99.90
2022-09-11T20:17:11.523Z,99.90
2022-09-11T20:19:40.733Z,99.90
2022-09-11T20:22:09.199Z,99.90
2022-09-11T20:24:37.228Z,99.90
2022-09-11T20:27:07.079Z,99.90
2022-09-11T20:29:35.688Z,99.90
2022-09-11T20:32:04.361Z,99.90
2022-09-11T20:34:32.997Z,99.90
2022-09-11T20:37:11.088Z,99.90
2022-09-11T20:39:39.952Z,99.90
2022-09-11T20:42:09.776Z,99.90
2022-09-11T20:44:42.490Z,99.90
2022-09-11T20:47:12.395Z,99.90
2022-09-11T20:49:41.902Z,99.90
2022-09-11T20:52:11.113Z,99.90
2022-09-11T20:54:39.712Z,99.90
2022-09-11T20:57:10.105Z,99.90
2022-09-11T21:00:07.323Z,99.90
2022-09-11T21:02:46.992Z,99.90
2022-09-11T21:05:32.560Z,99.90
2022-09-11T21:08:01.052Z,99.90
2022-09-11T21:10:29.876Z,99.90
2022-09-11T21:13:06.797Z,99.90
2022-09-11T21:15:34.879Z,99.90
2022-09-11T21:18:07.653Z,99.90
2022-09-11T21:20:37.552Z,99.90
2022-09-11T21:23:06.055Z,99.90
2022-09-11T21:25:38.429Z,99.90
2022-09-11T21:28:07.971Z,99.90
2022-09-11T21:30:39.338Z,99.90
2022-09-11T21:33:07.567Z,99.90
2022-09-11T21:35:36.638Z,99.90
2022-09-11T21:38:04.867Z,99.90
2022-09-11T21:40:35.997Z,99.90
2022-09-11T21:43:04.518Z,99.90
2022-09-11T21:45:34.001Z,99.90
2022-09-11T21:48:02.009Z,99.90
2022-09-11T21:50:30.087Z,99.90
2022-09-11T21:53:00.271Z,99.90
2022-09-11T21:55:28.451Z,99.90
2022-09-11T21:57:59.694Z,99.90
2022-09-11T22:00:28.082Z,99.90
2022-09-11T22:03:00.428Z,99.90
2022-09-11T22:05:28.567Z,99.90
2022-09-11T22:07:57.898Z,99.90
2022-09-11T22:10:29.430Z,99.90
2022-09-11T22:12:57.596Z,99.90
2022-09-11T22:15:25.631Z,99.90
2022-09-11T22:17:53.753Z,99.90
2022-09-11T22:20:23.127Z,99.90
2022-09-11T22:22:51.788Z,99.90
2022-09-11T22:25:19.930Z,99.90
2022-09-11T22:27:48.042Z,99.90
2022-09-11T22:30:16.157Z,99.90
2022-09-11T22:32:53.477Z,99.90
2022-09-11T22:35:22.703Z,99.90
2022-09-11T22:37:50.595Z,99.90
2022-09-11T22:40:18.861Z,99.90
2022-09-11T22:42:47.067Z,99.90
2022-09-11T22:45:15.060Z,99.90
2022-09-11T22:47:43.049Z,99.90
2022-09-11T22:50:11.162Z,99.90
2022-09-11T22:52:40.788Z,99.90
2022-09-11T22:55:09.818Z,99.90
2022-09-11T22:57:38.952Z,99.90
2022-09-11T23:00:09.984Z,99.90
2022-09-11T23:02:38.481Z,99.90
2022-09-11T23:05:24.738Z,99.90
2022-09-11T23:07:54.570Z,99.90
2022-09-11T23:10:23.652Z,99.90
2022-09-11T23:12:51.980Z,99.90
2022-09-11T23:15:20.498Z,99.90
2022-09-11T23:17:48.448Z,99.90
2022-09-11T23:20:18.845Z,99.90
2022-09-11T23:22:46.732Z,99.90
2022-09-11T23:25:16.230Z,99.90
2022-09-11T23:27:45.354Z,99.90
2022-09-11T23:30:13.603Z,99.90
2022-09-11T23:32:42.066Z,99.90
2022-09-11T23:35:10.772Z,99.90
2022-09-11T23:37:43.549Z,99.90
2022-09-11T23:40:13.293Z,99.90
2022-09-11T23:42:42.637Z,99.90
2022-09-11T23:45:12.704Z,99.90
2022-09-11T23:47:40.791Z,99.90
2022-09-11T23:50:10.757Z,99.90
2022-09-11T23:52:39.634Z,99.90
2022-09-11T23:55:08.772Z,99.90
2022-09-11T23:57:36.766Z,99.90
